sensor_id;sensor_type;location;lat;lon;timestamp;P1;durP1;ratioP1;P2;durP2;ratioP2
78783;SDS011;68127;51.050;14.084;2023-03-14T00:01:08;5.03;;;2.70;;
78783;SDS011;68127;51.050;14.084;2023-03-14T00:03:34;5.97;;;2.80;;
78783;SDS011;68127;51.050;14.084;2023-03-14T00:06:03;8.20;;;4.72;;
78783;SDS011;68127;51.050;14.084;2023-03-14T00:08:29;5.55;;;2.80;;
78783;SDS011;68127;51.050;14.084;2023-03-14T00:10:54;7.05;;;2.80;;
78783;SDS011;68127;51.050;14.084;2023-03-14T00:13:19;6.00;;;2.83;;
78783;SDS011;68127;51.050;14.084;2023-03-14T00:15:44;5.35;;;2.70;;
78783;SDS011;68127;51.050;14.084;2023-03-14T00:18:10;6.05;;;3.38;;
78783;SDS011;68127;51.050;14.084;2023-03-14T00:20:35;5.47;;;3.25;;
78783;SDS011;68127;51.050;14.084;2023-03-14T00:23:00;6.00;;;2.97;;
78783;SDS011;68127;51.050;14.084;2023-03-14T00:25:26;4.68;;;2.63;;
78783;SDS011;68127;51.050;14.084;2023-03-14T00:27:51;4.93;;;2.97;;
78783;SDS011;68127;51.050;14.084;2023-03-14T00:30:16;6.03;;;3.80;;
78783;SDS011;68127;51.050;14.084;2023-03-14T00:32:42;6.13;;;3.10;;
78783;SDS011;68127;51.050;14.084;2023-03-14T00:35:08;6.55;;;3.20;;
78783;SDS011;68127;51.050;14.084;2023-03-14T00:37:33;7.35;;;3.25;;
78783;SDS011;68127;51.050;14.084;2023-03-14T00:39:58;6.30;;;3.63;;
78783;SDS011;68127;51.050;14.084;2023-03-14T00:42:24;6.10;;;3.78;;
78783;SDS011;68127;51.050;14.084;2023-03-14T00:44:49;5.95;;;3.70;;
78783;SDS011;68127;51.050;14.084;2023-03-14T00:47:14;7.00;;;4.13;;
78783;SDS011;68127;51.050;14.084;2023-03-14T00:49:39;6.60;;;4.50;;
78783;SDS011;68127;51.050;14.084;2023-03-14T00:52:05;7.53;;;4.20;;
78783;SDS011;68127;51.050;14.084;2023-03-14T00:54:30;7.93;;;5.03;;
78783;SDS011;68127;51.050;14.084;2023-03-14T00:56:55;8.68;;;5.38;;
78783;SDS011;68127;51.050;14.084;2023-03-14T00:59:21;8.05;;;5.25;;
78783;SDS011;68127;51.050;14.084;2023-03-14T01:01:46;8.80;;;5.22;;
78783;SDS011;68127;51.050;14.084;2023-03-14T01:04:11;7.20;;;5.07;;
78783;SDS011;68127;51.050;14.084;2023-03-14T01:06:36;7.80;;;4.82;;
78783;SDS011;68127;51.050;14.084;2023-03-14T01:09:02;7.47;;;4.88;;
78783;SDS011;68127;51.050;14.084;2023-03-14T01:11:29;8.70;;;5.25;;
78783;SDS011;68127;51.050;14.084;2023-03-14T01:13:55;10.50;;;5.93;;
78783;SDS011;68127;51.050;14.084;2023-03-14T01:16:22;8.35;;;5.55;;
78783;SDS011;68127;51.050;14.084;2023-03-14T01:18:49;8.82;;;5.88;;
78783;SDS011;68127;51.050;14.084;2023-03-14T01:23:44;9.00;;;5.18;;
78783;SDS011;68127;51.050;14.084;2023-03-14T01:26:14;7.53;;;5.00;;
78783;SDS011;68127;51.050;14.084;2023-03-14T01:28:41;8.27;;;5.40;;
78783;SDS011;68127;51.050;14.084;2023-03-14T01:31:07;7.57;;;5.68;;
78783;SDS011;68127;51.050;14.084;2023-03-14T01:33:34;8.57;;;5.15;;
78783;SDS011;68127;51.050;14.084;2023-03-14T01:35:59;9.13;;;5.25;;
78783;SDS011;68127;51.050;14.084;2023-03-14T01:38:27;8.20;;;4.95;;
78783;SDS011;68127;51.050;14.084;2023-03-14T01:40:56;9.50;;;5.43;;
78783;SDS011;68127;51.050;14.084;2023-03-14T01:43:21;7.50;;;4.68;;
78783;SDS011;68127;51.050;14.084;2023-03-14T01:54:25;6.93;;;4.38;;
78783;SDS011;68127;51.050;14.084;2023-03-14T01:57:06;6.78;;;4.10;;
78783;SDS011;68127;51.050;14.084;2023-03-14T01:59:32;6.60;;;4.43;;
78783;SDS011;68127;51.050;14.084;2023-03-14T02:01:57;5.80;;;4.00;;
78783;SDS011;68127;51.050;14.084;2023-03-14T02:04:23;6.60;;;4.80;;
78783;SDS011;68127;51.050;14.084;2023-03-14T02:09:30;5.70;;;3.42;;
78783;SDS011;68127;51.050;14.084;2023-03-14T02:11:56;5.53;;;4.05;;
78783;SDS011;68127;51.050;14.084;2023-03-14T02:14:25;6.22;;;4.00;;
78783;SDS011;68127;51.050;14.084;2023-03-14T02:16:55;5.22;;;3.55;;
78783;SDS011;68127;51.050;14.084;2023-03-14T02:19:22;6.63;;;3.20;;
78783;SDS011;68127;51.050;14.084;2023-03-14T02:21:54;5.30;;;2.97;;
78783;SDS011;68127;51.050;14.084;2023-03-14T02:24:38;5.80;;;2.97;;
78783;SDS011;68127;51.050;14.084;2023-03-14T02:27:12;5.38;;;3.00;;
78783;SDS011;68127;51.050;14.084;2023-03-14T02:29:47;5.53;;;3.00;;
78783;SDS011;68127;51.050;14.084;2023-03-14T02:32:15;3.78;;;2.50;;
78783;SDS011;68127;51.050;14.084;2023-03-14T02:34:42;4.88;;;2.80;;
78783;SDS011;68127;51.050;14.084;2023-03-14T02:37:09;4.00;;;2.53;;
78783;SDS011;68127;51.050;14.084;2023-03-14T02:39:36;4.28;;;2.25;;
78783;SDS011;68127;51.050;14.084;2023-03-14T02:42:04;3.75;;;2.33;;
78783;SDS011;68127;51.050;14.084;2023-03-14T02:44:29;3.78;;;2.00;;
78783;SDS011;68127;51.050;14.084;2023-03-14T02:46:54;4.35;;;1.90;;
78783;SDS011;68127;51.050;14.084;2023-03-14T02:49:20;3.40;;;1.80;;
78783;SDS011;68127;51.050;14.084;2023-03-14T02:51:45;4.20;;;2.00;;
78783;SDS011;68127;51.050;14.084;2023-03-14T02:54:12;2.85;;;1.60;;
78783;SDS011;68127;51.050;14.084;2023-03-14T02:56:38;2.97;;;1.67;;
78783;SDS011;68127;51.050;14.084;2023-03-14T02:59:03;2.63;;;1.60;;
78783;SDS011;68127;51.050;14.084;2023-03-14T03:01:29;2.97;;;1.50;;
78783;SDS011;68127;51.050;14.084;2023-03-14T03:03:54;3.58;;;1.80;;
78783;SDS011;68127;51.050;14.084;2023-03-14T03:06:20;2.83;;;1.70;;
78783;SDS011;68127;51.050;14.084;2023-03-14T03:08:45;2.65;;;1.50;;
78783;SDS011;68127;51.050;14.084;2023-03-14T03:11:10;1.85;;;1.20;;
78783;SDS011;68127;51.050;14.084;2023-03-14T03:13:36;2.28;;;1.40;;
78783;SDS011;68127;51.050;14.084;2023-03-14T03:16:01;2.30;;;1.40;;
78783;SDS011;68127;51.050;14.084;2023-03-14T03:18:26;1.83;;;1.17;;
78783;SDS011;68127;51.050;14.084;2023-03-14T03:20:52;1.98;;;1.10;;
78783;SDS011;68127;51.050;14.084;2023-03-14T03:23:17;2.33;;;1.30;;
78783;SDS011;68127;51.050;14.084;2023-03-14T03:25:47;1.20;;;0.90;;
78783;SDS011;68127;51.050;14.084;2023-03-14T03:28:13;1.23;;;0.82;;
78783;SDS011;68127;51.050;14.084;2023-03-14T03:30:38;2.30;;;1.10;;
78783;SDS011;68127;51.050;14.084;2023-03-14T03:33:04;0.98;;;0.82;;
78783;SDS011;68127;51.050;14.084;2023-03-14T03:35:29;1.77;;;1.00;;
78783;SDS011;68127;51.050;14.084;2023-03-14T03:37:55;1.67;;;0.80;;
78783;SDS011;68127;51.050;14.084;2023-03-14T03:40:20;2.15;;;0.80;;
78783;SDS011;68127;51.050;14.084;2023-03-14T03:42:45;1.05;;;0.73;;
78783;SDS011;68127;51.050;14.084;2023-03-14T03:45:11;0.70;;;0.70;;
78783;SDS011;68127;51.050;14.084;2023-03-14T03:47:36;1.20;;;0.82;;
78783;SDS011;68127;51.050;14.084;2023-03-14T03:50:01;0.93;;;0.75;;
78783;SDS011;68127;51.050;14.084;2023-03-14T03:52:27;1.33;;;0.82;;
78783;SDS011;68127;51.050;14.084;2023-03-14T03:54:52;0.93;;;0.60;;
78783;SDS011;68127;51.050;14.084;2023-03-14T03:57:17;1.92;;;0.80;;
78783;SDS011;68127;51.050;14.084;2023-03-14T03:59:43;1.35;;;0.80;;
78783;SDS011;68127;51.050;14.084;2023-03-14T04:02:08;0.88;;;0.70;;
78783;SDS011;68127;51.050;14.084;2023-03-14T04:04:33;1.42;;;0.77;;
78783;SDS011;68127;51.050;14.084;2023-03-14T04:06:59;1.23;;;0.80;;
78783;SDS011;68127;51.050;14.084;2023-03-14T04:09:24;0.70;;;0.60;;
78783;SDS011;68127;51.050;14.084;2023-03-14T04:11:49;1.05;;;0.70;;
78783;SDS011;68127;51.050;14.084;2023-03-14T04:14:14;0.88;;;0.60;;
78783;SDS011;68127;51.050;14.084;2023-03-14T04:16:40;0.65;;;0.65;;
78783;SDS011;68127;51.050;14.084;2023-03-14T04:19:05;0.50;;;0.50;;
78783;SDS011;68127;51.050;14.084;2023-03-14T04:21:31;1.15;;;0.70;;
78783;SDS011;68127;51.050;14.084;2023-03-14T04:24:00;0.57;;;0.57;;
78783;SDS011;68127;51.050;14.084;2023-03-14T04:26:26;0.77;;;0.60;;
78783;SDS011;68127;51.050;14.084;2023-03-14T04:28:51;1.08;;;0.77;;
78783;SDS011;68127;51.050;14.084;2023-03-14T04:31:17;1.13;;;0.68;;
78783;SDS011;68127;51.050;14.084;2023-03-14T04:33:44;0.52;;;0.52;;
78783;SDS011;68127;51.050;14.084;2023-03-14T04:36:10;0.55;;;0.50;;
78783;SDS011;68127;51.050;14.084;2023-03-14T04:38:35;0.95;;;0.60;;
78783;SDS011;68127;51.050;14.084;2023-03-14T04:41:01;2.95;;;0.80;;
78783;SDS011;68127;51.050;14.084;2023-03-14T04:43:26;0.68;;;0.60;;
78783;SDS011;68127;51.050;14.084;2023-03-14T04:45:55;0.60;;;0.60;;
78783;SDS011;68127;51.050;14.084;2023-03-14T04:48:22;1.35;;;0.65;;
78783;SDS011;68127;51.050;14.084;2023-03-14T04:50:47;1.02;;;0.73;;
78783;SDS011;68127;51.050;14.084;2023-03-14T04:53:13;0.80;;;0.60;;
78783;SDS011;68127;51.050;14.084;2023-03-14T04:55:39;0.93;;;0.70;;
78783;SDS011;68127;51.050;14.084;2023-03-14T04:58:04;0.93;;;0.60;;
78783;SDS011;68127;51.050;14.084;2023-03-14T05:00:29;0.93;;;0.77;;
78783;SDS011;68127;51.050;14.084;2023-03-14T05:02:54;1.45;;;0.70;;
78783;SDS011;68127;51.050;14.084;2023-03-14T05:05:20;0.98;;;0.50;;
78783;SDS011;68127;51.050;14.084;2023-03-14T05:07:45;1.17;;;0.60;;
78783;SDS011;68127;51.050;14.084;2023-03-14T05:10:11;2.20;;;0.98;;
78783;SDS011;68127;51.050;14.084;2023-03-14T05:12:36;1.45;;;0.73;;
78783;SDS011;68127;51.050;14.084;2023-03-14T05:15:01;1.45;;;0.70;;
78783;SDS011;68127;51.050;14.084;2023-03-14T05:17:26;0.77;;;0.60;;
78783;SDS011;68127;51.050;14.084;2023-03-14T05:19:52;1.17;;;0.80;;
78783;SDS011;68127;51.050;14.084;2023-03-14T05:22:17;1.48;;;0.73;;
78783;SDS011;68127;51.050;14.084;2023-03-14T05:24:42;1.65;;;0.63;;
78783;SDS011;68127;51.050;14.084;2023-03-14T05:27:07;2.42;;;0.77;;
78783;SDS011;68127;51.050;14.084;2023-03-14T05:29:33;1.83;;;0.70;;
78783;SDS011;68127;51.050;14.084;2023-03-14T05:31:58;2.42;;;0.88;;
78783;SDS011;68127;51.050;14.084;2023-03-14T05:34:25;1.80;;;0.82;;
78783;SDS011;68127;51.050;14.084;2023-03-14T05:36:50;2.72;;;0.70;;
78783;SDS011;68127;51.050;14.084;2023-03-14T05:39:16;0.60;;;0.50;;
78783;SDS011;68127;51.050;14.084;2023-03-14T05:41:41;1.17;;;0.90;;
78783;SDS011;68127;51.050;14.084;2023-03-14T05:44:06;1.45;;;0.90;;
78783;SDS011;68127;51.050;14.084;2023-03-14T05:46:31;2.00;;;0.98;;
78783;SDS011;68127;51.050;14.084;2023-03-14T05:48:57;2.30;;;1.00;;
78783;SDS011;68127;51.050;14.084;2023-03-14T05:51:22;2.47;;;0.90;;
78783;SDS011;68127;51.050;14.084;2023-03-14T05:53:48;2.33;;;0.90;;
78783;SDS011;68127;51.050;14.084;2023-03-14T05:56:13;2.60;;;1.13;;
78783;SDS011;68127;51.050;14.084;2023-03-14T05:58:38;3.67;;;1.00;;
78783;SDS011;68127;51.050;14.084;2023-03-14T06:01:04;2.65;;;1.08;;
78783;SDS011;68127;51.050;14.084;2023-03-14T06:03:30;2.45;;;1.20;;
78783;SDS011;68127;51.050;14.084;2023-03-14T06:05:56;1.50;;;0.80;;
78783;SDS011;68127;51.050;14.084;2023-03-14T06:08:21;2.15;;;0.98;;
78783;SDS011;68127;51.050;14.084;2023-03-14T06:10:46;3.30;;;1.00;;
78783;SDS011;68127;51.050;14.084;2023-03-14T06:13:11;3.45;;;1.15;;
78783;SDS011;68127;51.050;14.084;2023-03-14T06:15:37;1.60;;;0.80;;
78783;SDS011;68127;51.050;14.084;2023-03-14T06:18:02;2.55;;;1.00;;
78783;SDS011;68127;51.050;14.084;2023-03-14T06:20:27;2.70;;;1.02;;
78783;SDS011;68127;51.050;14.084;2023-03-14T06:22:53;2.10;;;0.90;;
78783;SDS011;68127;51.050;14.084;2023-03-14T06:25:18;2.95;;;1.00;;
78783;SDS011;68127;51.050;14.084;2023-03-14T06:27:43;3.45;;;1.08;;
78783;SDS011;68127;51.050;14.084;2023-03-14T06:30:09;3.95;;;1.13;;
78783;SDS011;68127;51.050;14.084;2023-03-14T06:32:35;2.60;;;0.95;;
78783;SDS011;68127;51.050;14.084;2023-03-14T06:35:00;2.25;;;0.95;;
78783;SDS011;68127;51.050;14.084;2023-03-14T06:37:26;1.55;;;1.00;;
78783;SDS011;68127;51.050;14.084;2023-03-14T06:39:52;3.13;;;1.05;;
78783;SDS011;68127;51.050;14.084;2023-03-14T06:42:18;2.72;;;0.98;;
78783;SDS011;68127;51.050;14.084;2023-03-14T06:44:43;2.90;;;1.13;;
78783;SDS011;68127;51.050;14.084;2023-03-14T06:47:08;3.15;;;1.15;;
78783;SDS011;68127;51.050;14.084;2023-03-14T06:49:34;5.05;;;1.20;;
78783;SDS011;68127;51.050;14.084;2023-03-14T06:51:59;2.85;;;0.93;;
78783;SDS011;68127;51.050;14.084;2023-03-14T06:54:24;3.08;;;0.95;;
78783;SDS011;68127;51.050;14.084;2023-03-14T06:56:49;1.23;;;0.77;;
78783;SDS011;68127;51.050;14.084;2023-03-14T06:59:15;4.25;;;0.98;;
78783;SDS011;68127;51.050;14.084;2023-03-14T07:01:40;1.58;;;0.95;;
78783;SDS011;68127;51.050;14.084;2023-03-14T07:04:05;17.45;;;2.53;;
78783;SDS011;68127;51.050;14.084;2023-03-14T07:06:31;11.65;;;1.80;;
78783;SDS011;68127;51.050;14.084;2023-03-14T07:08:56;5.47;;;1.13;;
78783;SDS011;68127;51.050;14.084;2023-03-14T07:11:22;3.10;;;1.00;;
78783;SDS011;68127;51.050;14.084;2023-03-14T07:13:47;4.28;;;1.20;;
78783;SDS011;68127;51.050;14.084;2023-03-14T07:16:13;5.40;;;1.30;;
78783;SDS011;68127;51.050;14.084;2023-03-14T07:18:39;3.40;;;1.05;;
78783;SDS011;68127;51.050;14.084;2023-03-14T07:21:05;3.00;;;1.02;;
78783;SDS011;68127;51.050;14.084;2023-03-14T07:23:31;5.18;;;1.45;;
78783;SDS011;68127;51.050;14.084;2023-03-14T07:25:56;2.05;;;1.00;;
78783;SDS011;68127;51.050;14.084;2023-03-14T07:28:21;4.80;;;1.20;;
78783;SDS011;68127;51.050;14.084;2023-03-14T07:30:48;3.65;;;1.17;;
78783;SDS011;68127;51.050;14.084;2023-03-14T07:33:13;5.13;;;1.40;;
78783;SDS011;68127;51.050;14.084;2023-03-14T07:35:38;4.45;;;1.63;;
78783;SDS011;68127;51.050;14.084;2023-03-14T07:38:03;4.95;;;1.45;;
78783;SDS011;68127;51.050;14.084;2023-03-14T07:40:29;3.67;;;1.27;;
78783;SDS011;68127;51.050;14.084;2023-03-14T07:42:55;4.47;;;1.63;;
78783;SDS011;68127;51.050;14.084;2023-03-14T07:45:20;3.97;;;1.20;;
78783;SDS011;68127;51.050;14.084;2023-03-14T07:47:45;4.05;;;1.45;;
78783;SDS011;68127;51.050;14.084;2023-03-14T07:53:14;4.57;;;1.35;;
78783;SDS011;68127;51.050;14.084;2023-03-14T07:55:40;3.47;;;1.10;;
78783;SDS011;68127;51.050;14.084;2023-03-14T07:58:05;2.72;;;0.93;;
78783;SDS011;68127;51.050;14.084;2023-03-14T08:00:31;3.28;;;1.30;;
78783;SDS011;68127;51.050;14.084;2023-03-14T08:02:56;2.60;;;1.25;;
78783;SDS011;68127;51.050;14.084;2023-03-14T08:05:21;4.32;;;1.65;;
78783;SDS011;68127;51.050;14.084;2023-03-14T08:07:47;6.05;;;1.45;;
78783;SDS011;68127;51.050;14.084;2023-03-14T08:10:12;3.45;;;1.40;;
78783;SDS011;68127;51.050;14.084;2023-03-14T08:12:40;4.50;;;1.42;;
78783;SDS011;68127;51.050;14.084;2023-03-14T08:15:06;4.18;;;1.50;;
78783;SDS011;68127;51.050;14.084;2023-03-14T08:17:31;3.13;;;1.20;;
78783;SDS011;68127;51.050;14.084;2023-03-14T08:19:57;5.90;;;1.30;;
78783;SDS011;68127;51.050;14.084;2023-03-14T08:22:22;4.75;;;1.58;;
78783;SDS011;68127;51.050;14.084;2023-03-14T08:24:47;3.55;;;1.33;;
78783;SDS011;68127;51.050;14.084;2023-03-14T08:27:12;4.30;;;1.38;;
78783;SDS011;68127;51.050;14.084;2023-03-14T08:29:39;3.22;;;1.27;;
78783;SDS011;68127;51.050;14.084;2023-03-14T08:32:06;4.88;;;1.30;;
78783;SDS011;68127;51.050;14.084;2023-03-14T08:34:32;5.32;;;1.50;;
78783;SDS011;68127;51.050;14.084;2023-03-14T08:36:58;3.90;;;1.35;;
78783;SDS011;68127;51.050;14.084;2023-03-14T08:39:23;5.00;;;1.40;;
78783;SDS011;68127;51.050;14.084;2023-03-14T08:41:49;4.93;;;1.42;;
78783;SDS011;68127;51.050;14.084;2023-03-14T08:44:14;4.20;;;1.40;;
78783;SDS011;68127;51.050;14.084;2023-03-14T08:46:39;4.97;;;1.20;;
78783;SDS011;68127;51.050;14.084;2023-03-14T08:49:05;4.35;;;1.20;;
78783;SDS011;68127;51.050;14.084;2023-03-14T08:51:30;4.25;;;1.40;;
78783;SDS011;68127;51.050;14.084;2023-03-14T08:53:55;4.70;;;1.88;;
78783;SDS011;68127;51.050;14.084;2023-03-14T08:56:21;7.32;;;2.08;;
78783;SDS011;68127;51.050;14.084;2023-03-14T08:58:46;4.60;;;1.60;;
78783;SDS011;68127;51.050;14.084;2023-03-14T09:01:11;4.80;;;1.73;;
78783;SDS011;68127;51.050;14.084;2023-03-14T09:03:37;5.28;;;1.80;;
78783;SDS011;68127;51.050;14.084;2023-03-14T09:06:04;4.07;;;1.48;;
78783;SDS011;68127;51.050;14.084;2023-03-14T09:08:30;3.80;;;1.27;;
78783;SDS011;68127;51.050;14.084;2023-03-14T09:10:56;3.95;;;1.80;;
78783;SDS011;68127;51.050;14.084;2023-03-14T09:13:21;3.17;;;1.45;;
78783;SDS011;68127;51.050;14.084;2023-03-14T09:15:50;5.32;;;1.70;;
78783;SDS011;68127;51.050;14.084;2023-03-14T09:18:19;6.38;;;2.50;;
78783;SDS011;68127;51.050;14.084;2023-03-14T09:20:44;5.00;;;2.10;;
78783;SDS011;68127;51.050;14.084;2023-03-14T09:23:09;6.15;;;1.80;;
78783;SDS011;68127;51.050;14.084;2023-03-14T09:25:35;6.30;;;1.80;;
78783;SDS011;68127;51.050;14.084;2023-03-14T09:28:00;3.55;;;1.80;;
78783;SDS011;68127;51.050;14.084;2023-03-14T09:30:25;4.43;;;1.90;;
78783;SDS011;68127;51.050;14.084;2023-03-14T09:32:51;4.35;;;1.88;;
78783;SDS011;68127;51.050;14.084;2023-03-14T09:35:16;4.63;;;2.00;;
78783;SDS011;68127;51.050;14.084;2023-03-14T09:37:41;6.88;;;2.65;;
78783;SDS011;68127;51.050;14.084;2023-03-14T09:40:07;6.45;;;2.85;;
78783;SDS011;68127;51.050;14.084;2023-03-14T09:42:37;5.57;;;2.60;;
78783;SDS011;68127;51.050;14.084;2023-03-14T09:45:05;8.85;;;3.97;;
78783;SDS011;68127;51.050;14.084;2023-03-14T09:47:32;5.25;;;2.97;;
78783;SDS011;68127;51.050;14.084;2023-03-14T09:49:59;4.93;;;2.08;;
78783;SDS011;68127;51.050;14.084;2023-03-14T09:52:27;3.55;;;2.00;;
78783;SDS011;68127;51.050;14.084;2023-03-14T09:55:00;3.63;;;1.77;;
78783;SDS011;68127;51.050;14.084;2023-03-14T09:57:27;5.10;;;2.88;;
78783;SDS011;68127;51.050;14.084;2023-03-14T09:59:54;4.22;;;2.10;;
78783;SDS011;68127;51.050;14.084;2023-03-14T10:02:22;4.47;;;2.03;;
78783;SDS011;68127;51.050;14.084;2023-03-14T10:04:50;3.75;;;1.80;;
78783;SDS011;68127;51.050;14.084;2023-03-14T10:07:18;4.25;;;1.83;;
78783;SDS011;68127;51.050;14.084;2023-03-14T10:09:52;4.72;;;2.20;;
78783;SDS011;68127;51.050;14.084;2023-03-14T10:12:18;4.13;;;1.95;;
78783;SDS011;68127;51.050;14.084;2023-03-14T10:14:45;4.40;;;2.50;;
78783;SDS011;68127;51.050;14.084;2023-03-14T10:17:13;5.25;;;2.20;;
78783;SDS011;68127;51.050;14.084;2023-03-14T10:22:26;4.35;;;2.40;;
78783;SDS011;68127;51.050;14.084;2023-03-14T10:24:55;6.05;;;2.80;;
78783;SDS011;68127;51.050;14.084;2023-03-14T10:27:28;5.10;;;2.50;;
78783;SDS011;68127;51.050;14.084;2023-03-14T10:29:55;6.03;;;3.10;;
78783;SDS011;68127;51.050;14.084;2023-03-14T10:32:32;5.75;;;2.60;;
78783;SDS011;68127;51.050;14.084;2023-03-14T10:38:27;7.78;;;3.65;;
78783;SDS011;68127;51.050;14.084;2023-03-14T10:40:57;5.75;;;2.65;;
78783;SDS011;68127;51.050;14.084;2023-03-14T10:43:24;5.18;;;3.25;;
78783;SDS011;68127;51.050;14.084;2023-03-14T10:45:53;7.32;;;3.20;;
78783;SDS011;68127;51.050;14.084;2023-03-14T10:50:53;5.20;;;2.40;;
78783;SDS011;68127;51.050;14.084;2023-03-14T10:53:20;4.80;;;2.90;;
78783;SDS011;68127;51.050;14.084;2023-03-14T10:55:46;4.88;;;2.50;;
78783;SDS011;68127;51.050;14.084;2023-03-14T10:58:25;3.58;;;2.13;;
78783;SDS011;68127;51.050;14.084;2023-03-14T11:04:01;4.18;;;2.40;;
78783;SDS011;68127;51.050;14.084;2023-03-14T11:06:39;3.83;;;2.10;;
78783;SDS011;68127;51.050;14.084;2023-03-14T11:09:12;3.47;;;2.10;;
78783;SDS011;68127;51.050;14.084;2023-03-14T11:11:41;5.78;;;2.00;;
78783;SDS011;68127;51.050;14.084;2023-03-14T11:19:41;3.88;;;1.70;;
78783;SDS011;68127;51.050;14.084;2023-03-14T11:25:07;3.95;;;2.38;;
78783;SDS011;68127;51.050;14.084;2023-03-14T11:32:53;4.00;;;1.80;;
78783;SDS011;68127;51.050;14.084;2023-03-14T11:37:53;2.70;;;1.60;;
78783;SDS011;68127;51.050;14.084;2023-03-14T11:40:21;2.88;;;1.70;;
78783;SDS011;68127;51.050;14.084;2023-03-14T11:43:34;5.00;;;1.60;;
78783;SDS011;68127;51.050;14.084;2023-03-14T11:45:41;3.17;;;1.60;;
78783;SDS011;68127;51.050;14.084;2023-03-14T11:50:39;2.97;;;1.50;;
78783;SDS011;68127;51.050;14.084;2023-03-14T11:53:09;3.90;;;1.60;;
78783;SDS011;68127;51.050;14.084;2023-03-14T11:55:40;5.15;;;1.70;;
78783;SDS011;68127;51.050;14.084;2023-03-14T11:58:20;2.72;;;1.50;;
78783;SDS011;68127;51.050;14.084;2023-03-14T12:00:50;5.97;;;1.80;;
78783;SDS011;68127;51.050;14.084;2023-03-14T12:03:21;3.47;;;1.50;;
78783;SDS011;68127;51.050;14.084;2023-03-14T12:05:59;2.60;;;1.25;;
78783;SDS011;68127;51.050;14.084;2023-03-14T12:08:37;2.30;;;1.42;;
78783;SDS011;68127;51.050;14.084;2023-03-14T12:11:19;3.70;;;1.60;;
78783;SDS011;68127;51.050;14.084;2023-03-14T12:13:55;2.65;;;1.48;;
78783;SDS011;68127;51.050;14.084;2023-03-14T12:18:49;2.95;;;1.50;;
78783;SDS011;68127;51.050;14.084;2023-03-14T12:21:16;2.72;;;1.50;;
78783;SDS011;68127;51.050;14.084;2023-03-14T12:23:50;3.03;;;1.70;;
78783;SDS011;68127;51.050;14.084;2023-03-14T12:26:18;5.00;;;2.38;;
78783;SDS011;68127;51.050;14.084;2023-03-14T12:39:19;4.55;;;1.60;;
78783;SDS011;68127;51.050;14.084;2023-03-14T12:42:01;5.80;;;2.67;;
78783;SDS011;68127;51.050;14.084;2023-03-14T12:46:54;4.55;;;2.53;;
78783;SDS011;68127;51.050;14.084;2023-03-14T12:49:22;3.08;;;1.85;;
78783;SDS011;68127;51.050;14.084;2023-03-14T12:52:00;2.60;;;1.60;;
78783;SDS011;68127;51.050;14.084;2023-03-14T12:54:32;3.28;;;1.65;;
78783;SDS011;68127;51.050;14.084;2023-03-14T12:57:14;2.72;;;1.30;;
78783;SDS011;68127;51.050;14.084;2023-03-14T12:59:50;3.25;;;1.50;;
78783;SDS011;68127;51.050;14.084;2023-03-14T13:02:29;4.45;;;1.40;;
78783;SDS011;68127;51.050;14.084;2023-03-14T13:12:53;3.97;;;1.00;;
78783;SDS011;68127;51.050;14.084;2023-03-14T13:15:24;2.13;;;1.20;;
78783;SDS011;68127;51.050;14.084;2023-03-14T13:17:56;1.80;;;1.00;;
78783;SDS011;68127;51.050;14.084;2023-03-14T13:20:29;3.70;;;1.20;;
78783;SDS011;68127;51.050;14.084;2023-03-14T13:22:56;2.83;;;1.15;;
78783;SDS011;68127;51.050;14.084;2023-03-14T13:25:22;1.95;;;0.93;;
78783;SDS011;68127;51.050;14.084;2023-03-14T13:27:47;1.38;;;0.73;;
78783;SDS011;68127;51.050;14.084;2023-03-14T13:30:18;0.90;;;0.70;;
78783;SDS011;68127;51.050;14.084;2023-03-14T13:32:47;1.17;;;0.90;;
78783;SDS011;68127;51.050;14.084;2023-03-14T13:35:14;1.92;;;0.70;;
78783;SDS011;68127;51.050;14.084;2023-03-14T13:37:41;0.90;;;0.60;;
78783;SDS011;68127;51.050;14.084;2023-03-14T13:40:17;1.65;;;0.82;;
78783;SDS011;68127;51.050;14.084;2023-03-14T13:42:44;1.05;;;0.63;;
78783;SDS011;68127;51.050;14.084;2023-03-14T13:45:11;1.55;;;0.70;;
78783;SDS011;68127;51.050;14.084;2023-03-14T13:47:38;0.70;;;0.68;;
78783;SDS011;68127;51.050;14.084;2023-03-14T13:50:03;0.75;;;0.55;;
78783;SDS011;68127;51.050;14.084;2023-03-14T13:52:36;1.83;;;0.85;;
78783;SDS011;68127;51.050;14.084;2023-03-14T13:55:03;1.15;;;0.60;;
78783;SDS011;68127;51.050;14.084;2023-03-14T14:00:18;2.47;;;0.73;;
78783;SDS011;68127;51.050;14.084;2023-03-14T14:02:45;0.77;;;0.55;;
78783;SDS011;68127;51.050;14.084;2023-03-14T14:05:10;1.13;;;0.55;;
78783;SDS011;68127;51.050;14.084;2023-03-14T14:07:37;1.33;;;0.70;;
78783;SDS011;68127;51.050;14.084;2023-03-14T14:10:02;0.40;;;0.40;;
78783;SDS011;68127;51.050;14.084;2023-03-14T14:12:30;1.15;;;0.68;;
78783;SDS011;68127;51.050;14.084;2023-03-14T14:15:00;1.88;;;0.57;;
78783;SDS011;68127;51.050;14.084;2023-03-14T14:20:04;0.98;;;0.60;;
78783;SDS011;68127;51.050;14.084;2023-03-14T14:22:32;0.73;;;0.35;;
78783;SDS011;68127;51.050;14.084;2023-03-14T14:24:57;1.42;;;0.73;;
78783;SDS011;68127;51.050;14.084;2023-03-14T14:27:24;0.50;;;0.50;;
78783;SDS011;68127;51.050;14.084;2023-03-14T14:32:22;0.68;;;0.63;;
78783;SDS011;68127;51.050;14.084;2023-03-14T14:37:20;3.80;;;2.08;;
78783;SDS011;68127;51.050;14.084;2023-03-14T14:39:45;4.35;;;2.10;;
78783;SDS011;68127;51.050;14.084;2023-03-14T14:42:14;2.78;;;1.58;;
78783;SDS011;68127;51.050;14.084;2023-03-14T14:44:41;3.03;;;1.10;;
78783;SDS011;68127;51.050;14.084;2023-03-14T14:47:12;1.40;;;1.05;;
78783;SDS011;68127;51.050;14.084;2023-03-14T14:49:38;0.82;;;0.63;;
78783;SDS011;68127;51.050;14.084;2023-03-14T14:52:05;2.13;;;1.10;;
78783;SDS011;68127;51.050;14.084;2023-03-14T14:54:39;1.10;;;1.00;;
78783;SDS011;68127;51.050;14.084;2023-03-14T14:57:19;2.22;;;1.25;;
78783;SDS011;68127;51.050;14.084;2023-03-14T14:59:47;1.50;;;0.90;;
78783;SDS011;68127;51.050;14.084;2023-03-14T15:02:23;2.13;;;1.13;;
78783;SDS011;68127;51.050;14.084;2023-03-14T15:04:53;3.60;;;1.95;;
78783;SDS011;68127;51.050;14.084;2023-03-14T15:07:19;3.22;;;1.55;;
78783;SDS011;68127;51.050;14.084;2023-03-14T15:09:44;2.50;;;1.30;;
78783;SDS011;68127;51.050;14.084;2023-03-14T15:12:09;1.90;;;1.10;;
78783;SDS011;68127;51.050;14.084;2023-03-14T15:14:35;2.20;;;0.70;;
78783;SDS011;68127;51.050;14.084;2023-03-14T15:17:00;1.65;;;0.85;;
78783;SDS011;68127;51.050;14.084;2023-03-14T15:19:25;1.27;;;0.43;;
78783;SDS011;68127;51.050;14.084;2023-03-14T15:21:52;1.65;;;0.82;;
78783;SDS011;68127;51.050;14.084;2023-03-14T15:24:17;0.90;;;0.60;;
78783;SDS011;68127;51.050;14.084;2023-03-14T15:26:42;0.65;;;0.60;;
78783;SDS011;68127;51.050;14.084;2023-03-14T15:29:09;1.90;;;0.88;;
78783;SDS011;68127;51.050;14.084;2023-03-14T15:31:37;1.45;;;0.68;;
78783;SDS011;68127;51.050;14.084;2023-03-14T15:34:02;1.13;;;0.50;;
78783;SDS011;68127;51.050;14.084;2023-03-14T15:36:29;1.60;;;0.70;;
78783;SDS011;68127;51.050;14.084;2023-03-14T15:38:56;1.75;;;0.80;;
78783;SDS011;68127;51.050;14.084;2023-03-14T15:41:21;1.27;;;0.80;;
78783;SDS011;68127;51.050;14.084;2023-03-14T15:43:47;1.08;;;0.55;;
78783;SDS011;68127;51.050;14.084;2023-03-14T15:46:13;1.00;;;0.55;;
78783;SDS011;68127;51.050;14.084;2023-03-14T15:48:39;1.73;;;0.60;;
78783;SDS011;68127;51.050;14.084;2023-03-14T15:51:05;1.02;;;0.60;;
78783;SDS011;68127;51.050;14.084;2023-03-14T15:53:31;2.25;;;0.93;;